sensor_id;sensor_type;location;lat;lon;timestamp;pressure;altitude;pressure_sealevel;temperature;humidity
62779;BME280;48821;48.796;2.396;2024-01-25T00:00:21;103084.44;;;12.96;74.54
62779;BME280;48821;48.796;2.396;2024-01-25T00:01:34;103076.50;;;12.91;74.44
62779;BME280;48821;48.796;2.396;2024-01-25T00:02:47;103078.28;;;12.89;74.58
62779;BME280;48821;48.796;2.396;2024-01-25T00:04:00;103077.44;;;12.89;74.73
62779;BME280;48821;48.796;2.396;2024-01-25T00:05:11;103074.81;;;12.86;74.99
62779;BME280;48821;48.796;2.396;2024-01-25T00:06:22;103076.56;;;12.85;74.81
62779;BME280;48821;48.796;2.396;2024-01-25T00:07:45;103072.19;;;12.81;74.77
62779;BME280;48821;48.796;2.396;2024-01-25T00:08:58;103067.81;;;12.78;74.87
62779;BME280;48821;48.796;2.396;2024-01-25T00:10:11;103062.53;;;12.78;75.06
62779;BME280;48821;48.796;2.396;2024-01-25T00:11:24;103067.81;;;12.78;74.97
62779;BME280;48821;48.796;2.396;2024-01-25T00:12:38;103062.53;;;12.78;75.26
62779;BME280;48821;48.796;2.396;2024-01-25T00:13:51;103055.47;;;12.77;75.40
62779;BME280;48821;48.796;2.396;2024-01-25T00:15:04;103056.38;;;12.76;75.30
62779;BME280;48821;48.796;2.396;2024-01-25T00:16:18;103054.63;;;12.75;75.52
62779;BME280;48821;48.796;2.396;2024-01-25T00:17:31;103051.09;;;12.75;75.53
62779;BME280;48821;48.796;2.396;2024-01-25T00:18:41;103056.38;;;12.75;75.60
62779;BME280;48821;48.796;2.396;2024-01-25T00:19:52;103053.75;;;12.76;75.48
62779;BME280;48821;48.796;2.396;2024-01-25T00:21:05;103050.22;;;12.74;75.38
62779;BME280;48821;48.796;2.396;2024-01-25T00:22:16;103056.38;;;12.76;75.70
62779;BME280;48821;48.796;2.396;2024-01-25T00:23:27;103052.84;;;12.76;76.07
62779;BME280;48821;48.796;2.396;2024-01-25T00:24:38;103044.94;;;12.74;75.74
62779;BME280;48821;48.796;2.396;2024-01-25T00:25:48;103046.72;;;12.74;76.31
62779;BME280;48821;48.796;2.396;2024-01-25T00:27:00;103032.63;;;12.73;76.13
62779;BME280;48821;48.796;2.396;2024-01-25T00:28:13;103044.06;;;12.72;76.21
62779;BME280;48821;48.796;2.396;2024-01-25T00:29:27;103045.84;;;12.73;75.99
62779;BME280;48821;48.796;2.396;2024-01-25T00:30:40;103039.66;;;12.73;76.34
62779;BME280;48821;48.796;2.396;2024-01-25T00:31:53;103039.66;;;12.73;76.22
62779;BME280;48821;48.796;2.396;2024-01-25T00:33:06;103040.56;;;12.73;76.40
62779;BME280;48821;48.796;2.396;2024-01-25T00:34:20;103038.81;;;12.74;76.25
62779;BME280;48821;48.796;2.396;2024-01-25T00:35:33;103037.91;;;12.73;76.60
62779;BME280;48821;48.796;2.396;2024-01-25T00:36:47;103037.91;;;12.73;76.59
62779;BME280;48821;48.796;2.396;2024-01-25T00:38:00;103036.16;;;12.74;76.38
62779;BME280;48821;48.796;2.396;2024-01-25T00:39:14;103039.66;;;12.74;76.31
62779;BME280;48821;48.796;2.396;2024-01-25T00:40:24;103038.81;;;12.74;76.39
62779;BME280;48821;48.796;2.396;2024-01-25T00:41:36;103039.66;;;12.73;76.38
62779;BME280;48821;48.796;2.396;2024-01-25T00:42:50;103037.91;;;12.73;76.28
62779;BME280;48821;48.796;2.396;2024-01-25T00:44:06;103032.63;;;12.73;76.45
62779;BME280;48821;48.796;2.396;2024-01-25T00:45:17;103038.78;;;12.75;76.52
62779;BME280;48821;48.796;2.396;2024-01-25T00:46:29;103034.38;;;12.74;76.76
62779;BME280;48821;48.796;2.396;2024-01-25T00:47:42;103037.91;;;12.75;76.34
62779;BME280;48821;48.796;2.396;2024-01-25T00:48:55;103029.09;;;12.76;76.60
62779;BME280;48821;48.796;2.396;2024-01-25T00:50:09;103025.59;;;12.75;76.65
62779;BME280;48821;48.796;2.396;2024-01-25T00:51:22;103028.22;;;12.77;76.44
62779;BME280;48821;48.796;2.396;2024-01-25T00:52:36;103022.94;;;12.77;76.78
62779;BME280;48821;48.796;2.396;2024-01-25T00:53:49;103018.53;;;12.77;76.59
62779;BME280;48821;48.796;2.396;2024-01-25T00:55:03;103015.91;;;12.77;76.78
62779;BME280;48821;48.796;2.396;2024-01-25T00:56:17;103021.16;;;12.77;76.93
62779;BME280;48821;48.796;2.396;2024-01-25T00:57:30;103023.81;;;12.77;76.70
62779;BME280;48821;48.796;2.396;2024-01-25T00:58:44;103020.31;;;12.78;76.70
62779;BME280;48821;48.796;2.396;2024-01-25T00:59:54;103012.38;;;12.77;76.56
62779;BME280;48821;48.796;2.396;2024-01-25T01:01:08;103018.53;;;12.77;76.67
62779;BME280;48821;48.796;2.396;2024-01-25T01:02:23;103012.38;;;12.77;76.92
62779;BME280;48821;48.796;2.396;2024-01-25T01:03:36;103019.44;;;12.76;76.80
62779;BME280;48821;48.796;2.396;2024-01-25T01:04:50;103020.31;;;12.78;76.68
62779;BME280;48821;48.796;2.396;2024-01-25T01:06:00;103012.38;;;12.77;76.68
62779;BME280;48821;48.796;2.396;2024-01-25T01:07:12;103018.53;;;12.79;76.75
62779;BME280;48821;48.796;2.396;2024-01-25T01:08:26;103016.78;;;12.78;76.82
62779;BME280;48821;48.796;2.396;2024-01-25T01:09:39;103013.28;;;12.76;77.03
62779;BME280;48821;48.796;2.396;2024-01-25T01:10:49;103015.91;;;12.74;76.76
62779;BME280;48821;48.796;2.396;2024-01-25T01:12:00;103014.16;;;12.73;76.67
62779;BME280;48821;48.796;2.396;2024-01-25T01:13:14;103015.94;;;12.73;76.74
62779;BME280;48821;48.796;2.396;2024-01-25T01:14:27;103020.31;;;12.72;77.08
62779;BME280;48821;48.796;2.396;2024-01-25T01:15:40;103019.44;;;12.70;76.88
62779;BME280;48821;48.796;2.396;2024-01-25T01:16:53;103020.34;;;12.70;76.96
62779;BME280;48821;48.796;2.396;2024-01-25T01:18:07;103021.22;;;12.68;77.22
62779;BME280;48821;48.796;2.396;2024-01-25T01:19:20;103019.47;;;12.67;77.02
62779;BME280;48821;48.796;2.396;2024-01-25T01:20:33;103014.19;;;12.65;77.43
62779;BME280;48821;48.796;2.396;2024-01-25T01:21:43;103018.59;;;12.65;77.64
62779;BME280;48821;48.796;2.396;2024-01-25T01:22:54;103012.47;;;12.61;77.51
62779;BME280;48821;48.796;2.396;2024-01-25T01:24:05;103016.88;;;12.60;77.27
62779;BME280;48821;48.796;2.396;2024-01-25T01:25:16;103008.97;;;12.59;77.17
62779;BME280;48821;48.796;2.396;2024-01-25T01:26:27;103015.13;;;12.56;77.57
62779;BME280;48821;48.796;2.396;2024-01-25T01:27:40;103014.25;;;12.53;77.36
62779;BME280;48821;48.796;2.396;2024-01-25T01:28:50;103012.50;;;12.50;77.55
62779;BME280;48821;48.796;2.396;2024-01-25T01:30:02;103011.66;;;12.48;77.36
62779;BME280;48821;48.796;2.396;2024-01-25T01:31:13;103013.41;;;12.47;77.39
62779;BME280;48821;48.796;2.396;2024-01-25T01:32:27;103014.28;;;12.48;77.63
62779;BME280;48821;48.796;2.396;2024-01-25T01:33:40;103016.91;;;12.48;77.63
62779;BME280;48821;48.796;2.396;2024-01-25T01:34:53;103005.50;;;12.47;77.72
62779;BME280;48821;48.796;2.396;2024-01-25T01:36:03;103010.75;;;12.47;77.33
62779;BME280;48821;48.796;2.396;2024-01-25T01:37:14;103004.63;;;12.47;77.62
62779;BME280;48821;48.796;2.396;2024-01-25T01:38:26;103010.78;;;12.46;77.23
62779;BME280;48821;48.796;2.396;2024-01-25T01:39:37;103017.84;;;12.44;77.47
62779;BME280;48821;48.796;2.396;2024-01-25T01:40:47;103013.44;;;12.40;77.54
62779;BME280;48821;48.796;2.396;2024-01-25T01:41:59;103008.16;;;12.40;77.60
62779;BME280;48821;48.796;2.396;2024-01-25T01:43:17;103010.78;;;12.40;77.63
62779;BME280;48821;48.796;2.396;2024-01-25T01:44:30;103013.44;;;12.38;77.67
62779;BME280;48821;48.796;2.396;2024-01-25T01:45:41;103016.09;;;12.38;77.58
62779;BME280;48821;48.796;2.396;2024-01-25T01:46:52;103013.47;;;12.36;77.87
62779;BME280;48821;48.796;2.396;2024-01-25T01:48:05;103017.88;;;12.34;77.49
62779;BME280;48821;48.796;2.396;2024-01-25T01:49:19;103014.34;;;12.32;77.40
62779;BME280;48821;48.796;2.396;2024-01-25T01:50:32;103010.84;;;12.30;77.46
62779;BME280;48821;48.796;2.396;2024-01-25T01:51:43;103009.09;;;12.31;77.61
62779;BME280;48821;48.796;2.396;2024-01-25T01:52:56;103010.84;;;12.32;77.86
62779;BME280;48821;48.796;2.396;2024-01-25T01:54:10;103015.22;;;12.33;77.58
62779;BME280;48821;48.796;2.396;2024-01-25T01:55:23;103002.91;;;12.33;77.68
62779;BME280;48821;48.796;2.396;2024-01-25T01:56:37;103015.22;;;12.33;77.62
62779;BME280;48821;48.796;2.396;2024-01-25T01:57:52;103008.19;;;12.30;77.55
62779;BME280;48821;48.796;2.396;2024-01-25T01:59:05;103009.97;;;12.31;77.60
62779;BME280;48821;48.796;2.396;2024-01-25T02:00:21;103013.47;;;12.30;77.77
62779;BME280;48821;48.796;2.396;2024-01-25T02:01:35;103013.47;;;12.30;77.77
62779;BME280;48821;48.796;2.396;2024-01-25T02:02:48;103006.44;;;12.31;77.90
62779;BME280;48821;48.796;2.396;2024-01-25T02:03:59;103006.44;;;12.31;77.98
62779;BME280;48821;48.796;2.396;2024-01-25T02:05:10;103010.84;;;12.32;77.80
62779;BME280;48821;48.796;2.396;2024-01-25T02:06:21;103008.19;;;12.33;77.66
62779;BME280;48821;48.796;2.396;2024-01-25T02:07:35;102999.41;;;12.31;77.65
62779;BME280;48821;48.796;2.396;2024-01-25T02:08:47;103007.31;;;12.34;77.90
62779;BME280;48821;48.796;2.396;2024-01-25T02:09:57;103006.44;;;12.34;77.88
62779;BME280;48821;48.796;2.396;2024-01-25T02:11:11;103002.91;;;12.35;77.87
62779;BME280;48821;48.796;2.396;2024-01-25T02:12:25;103009.94;;;12.36;77.73
62779;BME280;48821;48.796;2.396;2024-01-25T02:13:38;103005.53;;;12.35;78.20
62779;BME280;48821;48.796;2.396;2024-01-25T02:14:48;103011.69;;;12.35;78.14
62779;BME280;48821;48.796;2.396;2024-01-25T02:16:00;103012.59;;;12.36;77.99
62779;BME280;48821;48.796;2.396;2024-01-25T02:17:13;103010.81;;;12.35;77.81
62779;BME280;48821;48.796;2.396;2024-01-25T02:18:24;103004.66;;;12.36;77.75
62779;BME280;48821;48.796;2.396;2024-01-25T02:19:36;103008.19;;;12.36;77.54
62779;BME280;48821;48.796;2.396;2024-01-25T02:20:50;103009.97;;;12.34;77.63
62779;BME280;48821;48.796;2.396;2024-01-25T02:22:04;103009.06;;;12.34;77.58
62779;BME280;48821;48.796;2.396;2024-01-25T02:23:18;102998.50;;;12.32;77.28
62779;BME280;48821;48.796;2.396;2024-01-25T02:24:31;103005.56;;;12.30;77.56
62779;BME280;48821;48.796;2.396;2024-01-25T02:25:42;103000.28;;;12.30;77.72
62779;BME280;48821;48.796;2.396;2024-01-25T02:26:53;103011.72;;;12.31;77.62
62779;BME280;48821;48.796;2.396;2024-01-25T02:28:04;103004.69;;;12.28;77.91
62779;BME280;48821;48.796;2.396;2024-01-25T02:29:16;102995.91;;;12.29;77.78
62779;BME280;48821;48.796;2.396;2024-01-25T02:30:30;102995.91;;;12.29;77.62
62779;BME280;48821;48.796;2.396;2024-01-25T02:31:43;102995.03;;;12.29;77.75
62779;BME280;48821;48.796;2.396;2024-01-25T02:32:56;103006.47;;;12.29;77.78
62779;BME280;48821;48.796;2.396;2024-01-25T02:34:09;103000.28;;;12.30;77.68
62779;BME280;48821;48.796;2.396;2024-01-25T02:35:23;102999.44;;;12.30;77.54
62779;BME280;48821;48.796;2.396;2024-01-25T02:36:36;103000.28;;;12.30;77.92
62779;BME280;48821;48.796;2.396;2024-01-25T02:37:46;103004.72;;;12.30;77.98
62779;BME280;48821;48.796;2.396;2024-01-25T02:38:57;103004.69;;;12.31;77.69
62779;BME280;48821;48.796;2.396;2024-01-25T02:40:09;103009.97;;;12.31;77.75
62779;BME280;48821;48.796;2.396;2024-01-25T02:41:23;103008.19;;;12.30;77.78
62779;BME280;48821;48.796;2.396;2024-01-25T02:42:36;103000.28;;;12.30;77.68
62779;BME280;48821;48.796;2.396;2024-01-25T02:43:49;103003.81;;;12.31;77.80
62779;BME280;48821;48.796;2.396;2024-01-25T02:45:02;103007.34;;;12.30;77.53
62779;BME280;48821;48.796;2.396;2024-01-25T02:46:13;103007.34;;;12.30;77.65
62779;BME280;48821;48.796;2.396;2024-01-25T02:47:24;103008.19;;;12.30;77.99
62779;BME280;48821;48.796;2.396;2024-01-25T02:48:37;103001.19;;;12.29;77.86
62779;BME280;48821;48.796;2.396;2024-01-25T02:49:48;102999.44;;;12.30;77.67
62779;BME280;48821;48.796;2.396;2024-01-25T02:50:59;103004.72;;;12.30;77.86
62779;BME280;48821;48.796;2.396;2024-01-25T02:52:12;103002.06;;;12.30;77.85
62779;BME280;48821;48.796;2.396;2024-01-25T02:53:25;103002.91;;;12.30;77.78
62779;BME280;48821;48.796;2.396;2024-01-25T02:54:38;103009.09;;;12.31;77.77
62779;BME280;48821;48.796;2.396;2024-01-25T02:55:52;103007.31;;;12.31;78.11
62779;BME280;48821;48.796;2.396;2024-01-25T02:57:05;103005.56;;;12.30;77.86
62779;BME280;48821;48.796;2.396;2024-01-25T02:58:18;103011.69;;;12.32;77.92
62779;BME280;48821;48.796;2.396;2024-01-25T02:59:29;103007.34;;;12.30;77.56
62779;BME280;48821;48.796;2.396;2024-01-25T03:00:40;103012.59;;;12.31;77.94
62779;BME280;48821;48.796;2.396;2024-01-25T03:01:52;103009.09;;;12.31;78.00
62779;BME280;48821;48.796;2.396;2024-01-25T03:03:06;103009.09;;;12.31;77.70
62779;BME280;48821;48.796;2.396;2024-01-25T03:04:16;103005.56;;;12.30;77.89
62779;BME280;48821;48.796;2.396;2024-01-25T03:05:27;103013.47;;;12.30;78.08
62779;BME280;48821;48.796;2.396;2024-01-25T03:06:40;103003.81;;;12.29;78.01
62779;BME280;48821;48.796;2.396;2024-01-25T03:07:51;103001.19;;;12.29;77.99
62779;BME280;48821;48.796;2.396;2024-01-25T03:09:03;103003.81;;;12.31;78.21
62779;BME280;48821;48.796;2.396;2024-01-25T03:10:16;103004.69;;;12.31;77.91
62779;BME280;48821;48.796;2.396;2024-01-25T03:11:27;102999.41;;;12.31;77.78
62779;BME280;48821;48.796;2.396;2024-01-25T03:12:41;103002.03;;;12.33;77.98
62779;BME280;48821;48.796;2.396;2024-01-25T03:13:54;102998.50;;;12.32;78.06
62779;BME280;48821;48.796;2.396;2024-01-25T03:15:09;103001.16;;;12.32;78.20
62779;BME280;48821;48.796;2.396;2024-01-25T03:16:23;103002.91;;;12.33;77.84
62779;BME280;48821;48.796;2.396;2024-01-25T03:17:33;102998.50;;;12.32;78.04
62779;BME280;48821;48.796;2.396;2024-01-25T03:18:44;103002.94;;;12.32;77.89
62779;BME280;48821;48.796;2.396;2024-01-25T03:19:55;102999.41;;;12.33;77.80
62779;BME280;48821;48.796;2.396;2024-01-25T03:21:06;102992.38;;;12.33;77.93
62779;BME280;48821;48.796;2.396;2024-01-25T03:22:17;103002.91;;;12.33;78.19
62779;BME280;48821;48.796;2.396;2024-01-25T03:23:27;102997.66;;;12.33;78.14
62779;BME280;48821;48.796;2.396;2024-01-25T03:24:39;103003.78;;;12.32;78.26
62779;BME280;48821;48.796;2.396;2024-01-25T03:25:52;102998.50;;;12.32;78.19
62779;BME280;48821;48.796;2.396;2024-01-25T03:27:05;103000.31;;;12.32;77.98
62779;BME280;48821;48.796;2.396;2024-01-25T03:28:26;102988.88;;;12.31;78.26
62779;BME280;48821;48.796;2.396;2024-01-25T03:29:42;102993.25;;;12.32;78.03
62779;BME280;48821;48.796;2.396;2024-01-25T03:30:53;102997.66;;;12.33;78.17
62779;BME280;48821;48.796;2.396;2024-01-25T03:32:04;102993.25;;;12.32;78.20
62779;BME280;48821;48.796;2.396;2024-01-25T03:33:17;102997.66;;;12.32;77.92
62779;BME280;48821;48.796;2.396;2024-01-25T03:34:30;103006.44;;;12.32;78.09
62779;BME280;48821;48.796;2.396;2024-01-25T03:35:44;103001.16;;;12.32;77.92
62779;BME280;48821;48.796;2.396;2024-01-25T03:36:57;102998.53;;;12.34;78.05
62779;BME280;48821;48.796;2.396;2024-01-25T03:38:07;102988.88;;;12.31;78.06
62779;BME280;48821;48.796;2.396;2024-01-25T03:39:18;102988.88;;;12.31;78.22
62779;BME280;48821;48.796;2.396;2024-01-25T03:40:29;102988.88;;;12.31;77.94
62779;BME280;48821;48.796;2.396;2024-01-25T03:41:43;102993.25;;;12.32;78.22
62779;BME280;48821;48.796;2.396;2024-01-25T03:42:56;102988.84;;;12.33;78.41
62779;BME280;48821;48.796;2.396;2024-01-25T03:44:09;102991.50;;;12.33;78.27
62779;BME280;48821;48.796;2.396;2024-01-25T03:45:22;102993.25;;;12.34;78.25
62779;BME280;48821;48.796;2.396;2024-01-25T03:46:35;102984.47;;;12.33;77.72
62779;BME280;48821;48.796;2.396;2024-01-25T03:47:48;102985.34;;;12.34;78.12
62779;BME280;48821;48.796;2.396;2024-01-25T03:48:59;102976.56;;;12.32;78.16
62779;BME280;48821;48.796;2.396;2024-01-25T03:50:10;102980.94;;;12.33;78.29
62779;BME280;48821;48.796;2.396;2024-01-25T03:51:20;102985.34;;;12.34;78.12
62779;BME280;48821;48.796;2.396;2024-01-25T03:52:31;102990.63;;;12.34;77.82
62779;BME280;48821;48.796;2.396;2024-01-25T03:53:44;102988.84;;;12.33;78.00
62779;BME280;48821;48.796;2.396;2024-01-25T03:54:58;102987.09;;;12.33;77.98
62779;BME280;48821;48.796;2.396;2024-01-25T03:56:11;102983.56;;;12.33;78.10
62779;BME280;48821;48.796;2.396;2024-01-25T03:57:23;102979.22;;;12.32;78.38
62779;BME280;48821;48.796;2.396;2024-01-25T03:58:34;102987.13;;;12.32;78.05
62779;BME280;48821;48.796;2.396;2024-01-25T03:59:45;102988.88;;;12.31;77.98
62779;BME280;48821;48.796;2.396;2024-01-25T04:00:55;102992.38;;;12.30;78.21
62779;BME280;48821;48.796;2.396;2024-01-25T04:02:06;102988.00;;;12.29;78.05
62779;BME280;48821;48.796;2.396;2024-01-25T04:03:17;102992.38;;;12.29;77.98
62779;BME280;48821;48.796;2.396;2024-01-25T04:04:28;102988.00;;;12.27;78.03
62779;BME280;48821;48.796;2.396;2024-01-25T04:05:39;102987.13;;;12.27;78.36
62779;BME280;48821;48.796;2.396;2024-01-25T04:06:51;102993.25;;;12.27;78.22
62779;BME280;48821;48.796;2.396;2024-01-25T04:08:06;102993.25;;;12.27;78.21
62779;BME280;48821;48.796;2.396;2024-01-25T04:09:19;102992.41;;;12.27;78.14
62779;BME280;48821;48.796;2.396;2024-01-25T04:10:33;102994.16;;;12.26;78.16
62779;BME280;48821;48.796;2.396;2024-01-25T04:11:43;102994.16;;;12.28;77.95
62779;BME280;48821;48.796;2.396;2024-01-25T04:12:54;102992.38;;;12.29;78.67
62779;BME280;48821;48.796;2.396;2024-01-25T04:14:05;102988.00;;;12.27;78.18
62779;BME280;48821;48.796;2.396;2024-01-25T04:15:16;102986.22;;;12.28;78.43
62779;BME280;48821;48.796;2.396;2024-01-25T04:16:27;102983.59;;;12.28;78.30
62779;BME280;48821;48.796;2.396;2024-01-25T04:17:38;102988.88;;;12.28;78.45
62779;BME280;48821;48.796;2.396;2024-01-25T04:18:49;102984.50;;;12.25;78.24
62779;BME280;48821;48.796;2.396;2024-01-25T04:20:00;102981.88;;;12.27;78.56
62779;BME280;48821;48.796;2.396;2024-01-25T04:21:10;102984.50;;;12.25;78.51
62779;BME280;48821;48.796;2.396;2024-01-25T04:22:21;102981.88;;;12.27;78.53
62779;BME280;48821;48.796;2.396;2024-01-25T04:23:32;102972.19;;;12.24;78.60
62779;BME280;48821;48.796;2.396;2024-01-25T04:24:43;102982.72;;;12.26;78.60
62779;BME280;48821;48.796;2.396;2024-01-25T04:25:56;102980.97;;;12.25;78.56
62779;BME280;48821;48.796;2.396;2024-01-25T04:27:07;102980.09;;;12.26;78.54
62779;BME280;48821;48.796;2.396;2024-01-25T04:28:18;102973.97;;;12.24;78.56
62779;BME280;48821;48.796;2.396;2024-01-25T04:29:29;102980.97;;;12.25;78.77
62779;BME280;48821;48.796;2.396;2024-01-25T04:30:42;102990.66;;;12.24;78.78
62779;BME280;48821;48.796;2.396;2024-01-25T04:31:55;102989.75;;;12.25;78.76
62779;BME280;48821;48.796;2.396;2024-01-25T04:33:08;102990.66;;;12.24;78.85
62779;BME280;48821;48.796;2.396;2024-01-25T04:34:22;102988.88;;;12.25;78.61
62779;BME280;48821;48.796;2.396;2024-01-25T04:35:32;102985.38;;;12.26;78.47
62779;BME280;48821;48.796;2.396;2024-01-25T04:36:43;102990.66;;;12.26;78.62
62779;BME280;48821;48.796;2.396;2024-01-25T04:37:54;102990.66;;;12.26;79.10
62779;BME280;48821;48.796;2.396;2024-01-25T04:39:05;102992.41;;;12.25;78.79
62779;BME280;48821;48.796;2.396;2024-01-25T04:40:18;102990.66;;;12.26;78.59
62779;BME280;48821;48.796;2.396;2024-01-25T04:41:29;102982.72;;;12.26;78.57
62779;BME280;48821;48.796;2.396;2024-01-25T04:42:40;102984.50;;;12.27;78.63
62779;BME280;48821;48.796;2.396;2024-01-25T04:43:53;102983.63;;;12.26;78.73
62779;BME280;48821;48.796;2.396;2024-01-25T04:45:06;102988.00;;;12.26;78.64
62779;BME280;48821;48.796;2.396;2024-01-25T04:46:20;102973.94;;;12.25;78.64
62779;BME280;48821;48.796;2.396;2024-01-25T04:47:30;102982.72;;;12.27;78.82
62779;BME280;48821;48.796;2.396;2024-01-25T04:48:41;102985.38;;;12.26;78.77
62779;BME280;48821;48.796;2.396;2024-01-25T04:49:52;102978.34;;;12.25;78.86
62779;BME280;48821;48.796;2.396;2024-01-25T04:51:03;102973.06;;;12.25;78.75
62779;BME280;48821;48.796;2.396;2024-01-25T04:52:15;102971.31;;;12.24;78.82
62779;BME280;48821;48.796;2.396;2024-01-25T04:53:25;102974.81;;;12.23;78.76
62779;BME280;48821;48.796;2.396;2024-01-25T04:54:36;102971.31;;;12.22;78.55
62779;BME280;48821;48.796;2.396;2024-01-25T04:55:47;102977.47;;;12.23;78.85
62779;BME280;48821;48.796;2.396;2024-01-25T04:56:58;102967.81;;;12.22;78.90
62779;BME280;48821;48.796;2.396;2024-01-25T04:58:11;102973.94;;;12.22;78.72
62779;BME280;48821;48.796;2.396;2024-01-25T04:59:24;102967.81;;;12.22;79.14
62779;BME280;48821;48.796;2.396;2024-01-25T05:00:37;102964.28;;;12.23;78.72
62779;BME280;48821;48.796;2.396;2024-01-25T05:01:52;102966.03;;;12.22;78.74
62779;BME280;48821;48.796;2.396;2024-01-25T05:03:05;102971.31;;;12.24;78.55
62779;BME280;48821;48.796;2.396;2024-01-25T05:04:16;102962.53;;;12.23;78.92
62779;BME280;48821;48.796;2.396;2024-01-25T05:05:27;102964.28;;;12.21;78.77
62779;BME280;48821;48.796;2.396;2024-01-25T05:06:38;102966.91;;;12.23;78.91
62779;BME280;48821;48.796;2.396;2024-01-25T05:07:49;102965.19;;;12.22;78.89
62779;BME280;48821;48.796;2.396;2024-01-25T05:08:59;102964.28;;;12.23;78.92
62779;BME280;48821;48.796;2.396;2024-01-25T05:10:10;102961.66;;;12.21;79.10
62779;BME280;48821;48.796;2.396;2024-01-25T05:11:24;102960.78;;;12.21;78.88
62779;BME280;48821;48.796;2.396;2024-01-25T05:12:34;102958.13;;;12.21;79.04
62779;BME280;48821;48.796;2.396;2024-01-25T05:13:45;102959.03;;;12.21;78.84
62779;BME280;48821;48.796;2.396;2024-01-25T05:14:55;102955.50;;;12.21;78.82
62779;BME280;48821;48.796;2.396;2024-01-25T05:16:06;102953.78;;;12.20;79.14
62779;BME280;48821;48.796;2.396;2024-01-25T05:17:17;102959.91;;;12.20;78.98
62779;BME280;48821;48.796;2.396;2024-01-25T05:18:28;102952.88;;;12.19;79.17
62779;BME280;48821;48.796;2.396;2024-01-25T05:19:39;102949.38;;;12.19;78.89
62779;BME280;48821;48.796;2.396;2024-01-25T05:20:50;102948.50;;;12.20;79.02
62779;BME280;48821;48.796;2.396;2024-01-25T05:22:01;102946.72;;;12.19;79.23
62779;BME280;48821;48.796;2.396;2024-01-25T05:23:16;102952.88;;;12.19;78.90
62779;BME280;48821;48.796;2.396;2024-01-25T05:24:27;102951.13;;;12.20;79.07
62779;BME280;48821;48.796;2.396;2024-01-25T05:25:37;102954.63;;;12.20;79.42
62779;BME280;48821;48.796;2.396;2024-01-25T05:26:48;102947.63;;;12.19;78.88
62779;BME280;48821;48.796;2.396;2024-01-25T05:27:59;102949.34;;;12.20;79.12
62779;BME280;48821;48.796;2.396;2024-01-25T05:29:11;102953.78;;;12.20;78.80
62779;BME280;48821;48.796;2.396;2024-01-25T05:30:22;102951.97;;;12.20;78.92
62779;BME280;48821;48.796;2.396;2024-01-25T05:31:32;102941.47;;;12.19;78.96
62779;BME280;48821;48.796;2.396;2024-01-25T05:32:43;102947.63;;;12.19;78.96
62779;BME280;48821;48.796;2.396;2024-01-25T05:33:54;102947.63;;;12.19;78.80
62779;BME280;48821;48.796;2.396;2024-01-25T05:35:06;102939.69;;;12.18;78.88
62779;BME280;48821;48.796;2.396;2024-01-25T05:36:21;102936.19;;;12.19;79.07
62779;BME280;48821;48.796;2.396;2024-01-25T05:37:32;102939.69;;;12.18;79.17
62779;BME280;48821;48.796;2.396;2024-01-25T05:38:44;102942.31;;;12.18;79.03
62779;BME280;48821;48.796;2.396;2024-01-25T05:39:57;102930.91;;;12.15;79.06
62779;BME280;48821;48.796;2.396;2024-01-25T05:41:07;102937.06;;;12.16;79.54
62779;BME280;48821;48.796;2.396;2024-01-25T05:42:18;102934.44;;;12.16;79.16
62779;BME280;48821;48.796;2.396;2024-01-25T05:43:29;102931.81;;;12.16;78.89
62779;BME280;48821;48.796;2.396;2024-01-25T05:44:40;102930.06;;;12.17;78.98
62779;BME280;48821;48.796;2.396;2024-01-25T05:45:51;102935.31;;;12.17;79.08
62779;BME280;48821;48.796;2.396;2024-01-25T05:47:02;102934.41;;;12.18;78.96
62779;BME280;48821;48.796;2.396;2024-01-25T05:48:13;102931.78;;;12.18;78.95
62779;BME280;48821;48.796;2.396;2024-01-25T05:49:27;102930.91;;;12.19;78.81
62779;BME280;48821;48.796;2.396;2024-01-25T05:50:37;102932.66;;;12.18;79.06
62779;BME280;48821;48.796;2.396;2024-01-25T05:51:48;102930.03;;;12.18;79.20
62779;BME280;48821;48.796;2.396;2024-01-25T05:52:59;102931.78;;;12.18;78.83
62779;BME280;48821;48.796;2.396;2024-01-25T05:54:10;102933.56;;;12.17;79.16
62779;BME280;48821;48.796;2.396;2024-01-25T05:55:23;102931.81;;;12.16;78.96
62779;BME280;48821;48.796;2.396;2024-01-25T05:56:36;102935.31;;;12.17;79.22
62779;BME280;48821;48.796;2.396;2024-01-25T05:57:47;102937.06;;;12.16;79.16
62779;BME280;48821;48.796;2.396;2024-01-25T05:58:58;102946.72;;;12.15;79.25
62779;BME280;48821;48.796;2.396;2024-01-25T06:00:09;102947.63;;;12.16;79.53
62779;BME280;48821;48.796;2.396;2024-01-25T06:01:21;102950.25;;;12.16;79.12
62779;BME280;48821;48.796;2.396;2024-01-25T06:02:32;102953.78;;;12.17;79.21
62779;BME280;48821;48.796;2.396;2024-01-25T06:03:43;102947.63;;;12.14;79.44
62779;BME280;48821;48.796;2.396;2024-01-25T06:04:56;102953.75;;;12.15;79.27
62779;BME280;48821;48.796;2.396;2024-01-25T06:06:11;102955.53;;;12.14;79.29
62779;BME280;48821;48.796;2.396;2024-01-25T06:07:22;102956.41;;;12.15;79.24
62779;BME280;48821;48.796;2.396;2024-01-25T06:08:33;102959.91;;;12.15;79.25
62779;BME280;48821;48.796;2.396;2024-01-25T06:09:44;102960.81;;;12.16;79.46
62779;BME280;48821;48.796;2.396;2024-01-25T06:10:55;102959.91;;;12.15;79.30
62779;BME280;48821;48.796;2.396;2024-01-25T06:12:06;102962.56;;;12.15;79.36
62779;BME280;48821;48.796;2.396;2024-01-25T06:13:17;102959.91;;;12.15;79.48
62779;BME280;48821;48.796;2.396;2024-01-25T06:14:28;102958.19;;;12.14;79.25
62779;BME280;48821;48.796;2.396;2024-01-25T06:15:39;102959.03;;;12.15;79.36
62779;BME280;48821;48.796;2.396;2024-01-25T06:16:52;102957.28;;;12.15;79.36